sensor_id;sensor_type;location;lat;lon;timestamp;pressure;altitude;pressure_sealevel;temperature
72054;BMP280;59918;51.280;7.950;2023-03-01T00:02:18;99206.78;;;-3.73
72054;BMP280;59918;51.280;7.950;2023-03-01T00:04:43;99206.13;;;-3.76
72054;BMP280;59918;51.280;7.950;2023-03-01T00:07:08;99214.72;;;-3.80
72054;BMP280;59918;51.280;7.950;2023-03-01T00:09:36;99211.47;;;-3.82
72054;BMP280;59918;51.280;7.950;2023-03-01T00:12:01;99205.91;;;-3.87
72054;BMP280;59918;51.280;7.950;2023-03-01T00:14:26;99206.06;;;-3.90
72054;BMP280;59918;51.280;7.950;2023-03-01T00:16:52;99197.78;;;-3.92
72054;BMP280;59918;51.280;7.950;2023-03-01T00:19:18;99194.53;;;-3.94
72054;BMP280;59918;51.280;7.950;2023-03-01T00:21:44;99192.03;;;-3.94
72054;BMP280;59918;51.280;7.950;2023-03-01T00:24:10;99189.69;;;-3.97
72054;BMP280;59918;51.280;7.950;2023-03-01T00:26:35;99192.22;;;-3.97
72054;BMP280;59918;51.280;7.950;2023-03-01T00:29:01;99192.28;;;-3.99
72054;BMP280;59918;51.280;7.950;2023-03-01T00:31:28;99195.78;;;-4.01
72054;BMP280;59918;51.280;7.950;2023-03-01T00:34:03;99185.88;;;-4.04
72054;BMP280;59918;51.280;7.950;2023-03-01T00:36:34;99191.97;;;-4.08
72054;BMP280;59918;51.280;7.950;2023-03-01T00:39:00;99201.47;;;-4.13
72054;BMP280;59918;51.280;7.950;2023-03-01T00:41:26;99202.34;;;-4.14
72054;BMP280;59918;51.280;7.950;2023-03-01T00:43:51;99188.31;;;-4.18
72054;BMP280;59918;51.280;7.950;2023-03-01T00:46:21;99195.13;;;-4.20
72054;BMP280;59918;51.280;7.950;2023-03-01T00:48:47;99190.41;;;-4.26
72054;BMP280;59918;51.280;7.950;2023-03-01T00:51:24;99177.13;;;-4.28
72054;BMP280;59918;51.280;7.950;2023-03-01T00:53:51;99180.88;;;-4.35
72054;BMP280;59918;51.280;7.950;2023-03-01T00:56:17;99186.03;;;-4.37
72054;BMP280;59918;51.280;7.950;2023-03-01T00:58:42;99187.69;;;-4.36
72054;BMP280;59918;51.280;7.950;2023-03-01T01:01:16;99189.28;;;-4.36
72054;BMP280;59918;51.280;7.950;2023-03-01T01:04:13;99181.00;;;-4.37
72054;BMP280;59918;51.280;7.950;2023-03-01T01:06:41;99179.69;;;-4.44
72054;BMP280;59918;51.280;7.950;2023-03-01T01:09:06;99166.66;;;-4.51
72054;BMP280;59918;51.280;7.950;2023-03-01T01:11:32;99172.59;;;-4.52
72054;BMP280;59918;51.280;7.950;2023-03-01T01:13:59;99168.28;;;-4.50
72054;BMP280;59918;51.280;7.950;2023-03-01T01:16:26;99174.78;;;-4.46
72054;BMP280;59918;51.280;7.950;2023-03-01T01:18:51;99168.03;;;-4.45
72054;BMP280;59918;51.280;7.950;2023-03-01T01:21:19;99162.38;;;-4.49
72054;BMP280;59918;51.280;7.950;2023-03-01T01:23:45;99147.63;;;-4.55
72054;BMP280;59918;51.280;7.950;2023-03-01T01:26:20;99140.34;;;-4.59
72054;BMP280;59918;51.280;7.950;2023-03-01T01:28:46;99143.91;;;-4.63
72054;BMP280;59918;51.280;7.950;2023-03-01T01:31:11;99138.81;;;-4.62
72054;BMP280;59918;51.280;7.950;2023-03-01T01:33:37;99142.91;;;-4.61
72054;BMP280;59918;51.280;7.950;2023-03-01T01:36:03;99137.03;;;-4.60
72054;BMP280;59918;51.280;7.950;2023-03-01T01:38:29;99151.25;;;-4.60
72054;BMP280;59918;51.280;7.950;2023-03-01T01:40:54;99148.91;;;-4.63
72054;BMP280;59918;51.280;7.950;2023-03-01T01:43:27;99141.53;;;-4.66
72054;BMP280;59918;51.280;7.950;2023-03-01T01:45:56;99141.78;;;-4.71
72054;BMP280;59918;51.280;7.950;2023-03-01T01:48:28;99137.88;;;-4.76
72054;BMP280;59918;51.280;7.950;2023-03-01T01:50:59;99138.91;;;-4.80
72054;BMP280;59918;51.280;7.950;2023-03-01T01:53:25;99146.63;;;-4.83
72054;BMP280;59918;51.280;7.950;2023-03-01T01:55:56;99148.22;;;-4.82
72054;BMP280;59918;51.280;7.950;2023-03-01T01:58:24;99152.50;;;-4.84
72054;BMP280;59918;51.280;7.950;2023-03-01T02:00:50;99152.69;;;-4.87
72054;BMP280;59918;51.280;7.950;2023-03-01T02:03:19;99143.50;;;-4.88
72054;BMP280;59918;51.280;7.950;2023-03-01T02:05:51;99147.97;;;-4.93
72054;BMP280;59918;51.280;7.950;2023-03-01T02:08:20;99144.06;;;-4.98
72054;BMP280;59918;51.280;7.950;2023-03-01T02:10:47;99150.06;;;-5.01
72054;BMP280;59918;51.280;7.950;2023-03-01T02:13:13;99146.81;;;-5.03
72054;BMP280;59918;51.280;7.950;2023-03-01T02:15:40;99132.81;;;-5.07
72054;BMP280;59918;51.280;7.950;2023-03-01T02:18:06;99128.09;;;-5.12
72054;BMP280;59918;51.280;7.950;2023-03-01T02:23:07;99134.47;;;-5.22
72054;BMP280;59918;51.280;7.950;2023-03-01T02:25:44;99126.28;;;-5.26
72054;BMP280;59918;51.280;7.950;2023-03-01T02:30:40;99123.16;;;-5.31
72054;BMP280;59918;51.280;7.950;2023-03-01T02:33:06;99125.78;;;-5.32
72054;BMP280;59918;51.280;7.950;2023-03-01T02:35:37;99115.75;;;-5.32
72054;BMP280;59918;51.280;7.950;2023-03-01T02:38:03;99116.78;;;-5.36
72054;BMP280;59918;51.280;7.950;2023-03-01T02:40:33;99107.78;;;-5.40
72054;BMP280;59918;51.280;7.950;2023-03-01T02:42:59;99109.56;;;-5.42
72054;BMP280;59918;51.280;7.950;2023-03-01T02:45:26;99111.31;;;-5.44
72054;BMP280;59918;51.280;7.950;2023-03-01T02:47:56;99108.09;;;-5.46
72054;BMP280;59918;51.280;7.950;2023-03-01T02:55:24;99103.50;;;-5.55
72054;BMP280;59918;51.280;7.950;2023-03-01T02:57:50;99108.53;;;-5.55
72054;BMP280;59918;51.280;7.950;2023-03-01T03:00:19;99102.53;;;-5.52
72054;BMP280;59918;51.280;7.950;2023-03-01T03:02:50;99106.91;;;-5.56
72054;BMP280;59918;51.280;7.950;2023-03-01T03:05:22;99101.16;;;-5.58
72054;BMP280;59918;51.280;7.950;2023-03-01T03:07:48;99060.31;;;-5.60
72054;BMP280;59918;51.280;7.950;2023-03-01T03:10:28;99055.44;;;-5.63
72054;BMP280;59918;51.280;7.950;2023-03-01T03:13:06;99057.09;;;-5.62
72054;BMP280;59918;51.280;7.950;2023-03-01T03:15:32;99059.00;;;-5.67
72054;BMP280;59918;51.280;7.950;2023-03-01T03:17:58;99053.25;;;-5.69
72054;BMP280;59918;51.280;7.950;2023-03-01T03:20:26;99051.81;;;-5.73
72054;BMP280;59918;51.280;7.950;2023-03-01T03:22:53;99046.19;;;-5.78
72054;BMP280;59918;51.280;7.950;2023-03-01T03:25:19;99058.00;;;-5.80
72054;BMP280;59918;51.280;7.950;2023-03-01T03:27:47;99054.00;;;-5.83
72054;BMP280;59918;51.280;7.950;2023-03-01T03:30:16;99049.84;;;-5.83
72054;BMP280;59918;51.280;7.950;2023-03-01T03:32:43;99050.63;;;-5.82
72054;BMP280;59918;51.280;7.950;2023-03-01T03:35:09;99044.88;;;-5.84
72054;BMP280;59918;51.280;7.950;2023-03-01T03:37:39;99044.09;;;-5.85
72054;BMP280;59918;51.280;7.950;2023-03-01T03:40:05;99038.41;;;-5.88
72054;BMP280;59918;51.280;7.950;2023-03-01T03:42:30;99041.94;;;-5.92
72054;BMP280;59918;51.280;7.950;2023-03-01T03:44:55;99040.31;;;-5.93
72054;BMP280;59918;51.280;7.950;2023-03-01T03:47:20;99029.56;;;-5.95
72054;BMP280;59918;51.280;7.950;2023-03-01T03:49:46;99033.69;;;-5.94
72054;BMP280;59918;51.280;7.950;2023-03-01T03:52:11;99025.38;;;-5.95
72054;BMP280;59918;51.280;7.950;2023-03-01T03:54:36;99014.63;;;-5.97
72054;BMP280;59918;51.280;7.950;2023-03-01T03:57:01;99018.91;;;-5.99
72054;BMP280;59918;51.280;7.950;2023-03-01T03:59:27;99017.25;;;-6.00
72054;BMP280;59918;51.280;7.950;2023-03-01T04:01:54;99016.53;;;-6.02
72054;BMP280;59918;51.280;7.950;2023-03-01T04:04:19;99023.47;;;-6.07
72054;BMP280;59918;51.280;7.950;2023-03-01T04:06:45;99026.78;;;-6.06
72054;BMP280;59918;51.280;7.950;2023-03-01T04:09:10;99025.88;;;-6.05
72054;BMP280;59918;51.280;7.950;2023-03-01T04:11:35;99027.63;;;-6.07
72054;BMP280;59918;51.280;7.950;2023-03-01T04:14:00;99017.06;;;-6.12
72054;BMP280;59918;51.280;7.950;2023-03-01T04:16:26;98992.13;;;-6.15
72054;BMP280;59918;51.280;7.950;2023-03-01T04:18:51;98994.81;;;-6.18
72054;BMP280;59918;51.280;7.950;2023-03-01T04:21:17;98987.34;;;-6.19
72054;BMP280;59918;51.280;7.950;2023-03-01T04:23:42;98989.94;;;-6.21
72054;BMP280;59918;51.280;7.950;2023-03-01T04:26:07;98982.41;;;-6.21
72054;BMP280;59918;51.280;7.950;2023-03-01T04:28:35;98983.16;;;-6.19
72054;BMP280;59918;51.280;7.950;2023-03-01T04:31:19;98987.44;;;-6.21
72054;BMP280;59918;51.280;7.950;2023-03-01T04:33:46;98990.91;;;-6.23
72054;BMP280;59918;51.280;7.950;2023-03-01T04:36:12;98990.97;;;-6.25
72054;BMP280;59918;51.280;7.950;2023-03-01T04:38:38;98991.84;;;-6.26
72054;BMP280;59918;51.280;7.950;2023-03-01T04:41:05;98991.13;;;-6.28
72054;BMP280;59918;51.280;7.950;2023-03-01T04:43:31;98992.09;;;-6.30
72054;BMP280;59918;51.280;7.950;2023-03-01T04:46:04;98989.66;;;-6.32
72054;BMP280;59918;51.280;7.950;2023-03-01T04:48:30;98986.31;;;-6.32
72054;BMP280;59918;51.280;7.950;2023-03-01T04:50:56;98993.91;;;-6.34
72054;BMP280;59918;51.280;7.950;2023-03-01T04:53:40;98993.09;;;-6.34
72054;BMP280;59918;51.280;7.950;2023-03-01T04:56:39;98988.97;;;-6.35
72054;BMP280;59918;51.280;7.950;2023-03-01T04:59:39;98994.22;;;-6.40
72054;BMP280;59918;51.280;7.950;2023-03-01T05:02:04;98994.22;;;-6.40
72054;BMP280;59918;51.280;7.950;2023-03-01T05:04:30;98985.81;;;-6.39
72054;BMP280;59918;51.280;7.950;2023-03-01T05:06:55;98991.47;;;-6.35
72054;BMP280;59918;51.280;7.950;2023-03-01T05:09:20;98988.06;;;-6.34
72054;BMP280;59918;51.280;7.950;2023-03-01T05:11:46;98989.84;;;-6.36
72054;BMP280;59918;51.280;7.950;2023-03-01T05:14:11;98979.03;;;-6.37
72054;BMP280;59918;51.280;7.950;2023-03-01T05:16:36;98982.50;;;-6.39
72054;BMP280;59918;51.280;7.950;2023-03-01T05:19:03;98995.97;;;-6.42
72054;BMP280;59918;51.280;7.950;2023-03-01T05:21:28;98985.22;;;-6.44
72054;BMP280;59918;51.280;7.950;2023-03-01T05:23:54;98986.25;;;-6.48
72054;BMP280;59918;51.280;7.950;2023-03-01T05:26:20;98992.13;;;-6.49
72054;BMP280;59918;51.280;7.950;2023-03-01T05:28:45;98989.63;;;-6.49
72054;BMP280;59918;51.280;7.950;2023-03-01T05:31:10;98996.41;;;-6.51
72054;BMP280;59918;51.280;7.950;2023-03-01T05:33:39;98993.81;;;-6.49
72054;BMP280;59918;51.280;7.950;2023-03-01T05:36:07;98990.44;;;-6.48
72054;BMP280;59918;51.280;7.950;2023-03-01T05:38:33;98974.47;;;-6.46
72054;BMP280;59918;51.280;7.950;2023-03-01T05:40:58;98972.84;;;-6.47
72054;BMP280;59918;51.280;7.950;2023-03-01T05:43:30;98969.59;;;-6.49
72054;BMP280;59918;51.280;7.950;2023-03-01T05:45:57;98979.78;;;-6.52
72054;BMP280;59918;51.280;7.950;2023-03-01T05:48:22;98974.09;;;-6.55
72054;BMP280;59918;51.280;7.950;2023-03-01T05:50:50;98978.28;;;-6.55
72054;BMP280;59918;51.280;7.950;2023-03-01T05:53:18;98978.28;;;-6.55
72054;BMP280;59918;51.280;7.950;2023-03-01T05:55:44;98977.41;;;-6.54
72054;BMP280;59918;51.280;7.950;2023-03-01T05:58:15;98981.66;;;-6.56
72054;BMP280;59918;51.280;7.950;2023-03-01T06:00:41;98985.94;;;-6.58
72054;BMP280;59918;51.280;7.950;2023-03-01T06:03:08;98981.00;;;-6.60
72054;BMP280;59918;51.280;7.950;2023-03-01T06:05:34;98979.38;;;-6.61
72054;BMP280;59918;51.280;7.950;2023-03-01T06:08:00;98978.44;;;-6.58
72054;BMP280;59918;51.280;7.950;2023-03-01T06:10:26;98981.81;;;-6.59
72054;BMP280;59918;51.280;7.950;2023-03-01T06:12:51;98984.22;;;-6.58
72054;BMP280;59918;51.280;7.950;2023-03-01T06:15:17;98988.31;;;-6.55
72054;BMP280;59918;51.280;7.950;2023-03-01T06:17:44;98999.91;;;-6.54
72054;BMP280;59918;51.280;7.950;2023-03-01T06:20:15;98996.56;;;-6.53
72054;BMP280;59918;51.280;7.950;2023-03-01T06:22:41;98994.06;;;-6.53
72054;BMP280;59918;51.280;7.950;2023-03-01T06:25:08;98993.75;;;-6.48
72054;BMP280;59918;51.280;7.950;2023-03-01T06:27:33;98972.84;;;-6.47
72054;BMP280;59918;51.280;7.950;2023-03-01T06:29:59;98979.31;;;-6.43
72054;BMP280;59918;51.280;7.950;2023-03-01T06:32:24;98981.75;;;-6.41
72054;BMP280;59918;51.280;7.950;2023-03-01T06:34:50;98980.13;;;-6.42
72054;BMP280;59918;51.280;7.950;2023-03-01T06:37:15;98980.78;;;-6.39
72054;BMP280;59918;51.280;7.950;2023-03-01T06:39:40;98989.84;;;-6.36
72054;BMP280;59918;51.280;7.950;2023-03-01T06:42:07;98980.66;;;-6.36
72054;BMP280;59918;51.280;7.950;2023-03-01T06:44:35;98988.91;;;-6.34
72054;BMP280;59918;51.280;7.950;2023-03-01T06:47:00;98978.75;;;-6.31
72054;BMP280;59918;51.280;7.950;2023-03-01T06:49:26;98984.47;;;-6.29
72054;BMP280;59918;51.280;7.950;2023-03-01T06:51:51;98979.41;;;-6.27
72054;BMP280;59918;51.280;7.950;2023-03-01T06:54:16;98972.63;;;-6.25
72054;BMP280;59918;51.280;7.950;2023-03-01T06:56:42;98961.66;;;-6.23
72054;BMP280;59918;51.280;7.950;2023-03-01T06:59:07;98964.81;;;-6.19
72054;BMP280;59918;51.280;7.950;2023-03-01T07:01:32;98972.28;;;-6.18
72054;BMP280;59918;51.280;7.950;2023-03-01T07:03:57;98968.06;;;-6.17
72054;BMP280;59918;51.280;7.950;2023-03-01T07:06:23;98968.00;;;-6.16
72054;BMP280;59918;51.280;7.950;2023-03-01T07:08:48;98962.81;;;-6.13
72054;BMP280;59918;51.280;7.950;2023-03-01T07:11:14;98969.31;;;-6.09
72054;BMP280;59918;51.280;7.950;2023-03-01T07:13:40;98964.81;;;-6.03
72054;BMP280;59918;51.280;7.950;2023-03-01T07:16:05;98967.09;;;-5.98
72054;BMP280;59918;51.280;7.950;2023-03-01T07:18:31;98956.03;;;-5.94
72054;BMP280;59918;51.280;7.950;2023-03-01T07:20:56;98967.66;;;-5.93
72054;BMP280;59918;51.280;7.950;2023-03-01T07:23:21;98953.28;;;-5.90
72054;BMP280;59918;51.280;7.950;2023-03-01T07:25:53;98944.75;;;-5.86
72054;BMP280;59918;51.280;7.950;2023-03-01T07:28:18;98938.75;;;-5.83
72054;BMP280;59918;51.280;7.950;2023-03-01T07:30:44;98938.53;;;-5.79
72054;BMP280;59918;51.280;7.950;2023-03-01T07:33:09;98933.81;;;-5.70
72054;BMP280;59918;51.280;7.950;2023-03-01T07:35:34;98934.28;;;-5.62
72054;BMP280;59918;51.280;7.950;2023-03-01T07:37:59;98940.44;;;-5.52
72054;BMP280;59918;51.280;7.950;2023-03-01T07:40:25;98940.59;;;-5.40
72054;BMP280;59918;51.280;7.950;2023-03-01T07:42:55;98943.28;;;-5.12
72054;BMP280;59918;51.280;7.950;2023-03-01T07:45:21;98945.00;;;-4.68
72054;BMP280;59918;51.280;7.950;2023-03-01T07:47:46;98938.88;;;-4.20
72054;BMP280;59918;51.280;7.950;2023-03-01T07:50:11;98933.53;;;-3.72
72054;BMP280;59918;51.280;7.950;2023-03-01T07:52:36;98931.81;;;-3.30
72054;BMP280;59918;51.280;7.950;2023-03-01T07:55:02;98927.13;;;-2.96
72054;BMP280;59918;51.280;7.950;2023-03-01T07:57:27;98926.66;;;-2.63
72054;BMP280;59918;51.280;7.950;2023-03-01T07:59:52;98927.03;;;-2.30
72054;BMP280;59918;51.280;7.950;2023-03-01T08:02:17;98920.63;;;-1.97
72054;BMP280;59918;51.280;7.950;2023-03-01T08:04:43;98918.59;;;-1.68
72054;BMP280;59918;51.280;7.950;2023-03-01T08:07:08;98920.25;;;-1.44
72054;BMP280;59918;51.280;7.950;2023-03-01T08:09:36;98908.38;;;-1.18
72054;BMP280;59918;51.280;7.950;2023-03-01T08:12:02;98904.50;;;-0.99
72054;BMP280;59918;51.280;7.950;2023-03-01T08:14:27;98906.19;;;-0.76
72054;BMP280;59918;51.280;7.950;2023-03-01T08:16:52;98907.00;;;-0.53
72054;BMP280;59918;51.280;7.950;2023-03-01T08:19:18;98905.94;;;-0.27
72054;BMP280;59918;51.280;7.950;2023-03-01T08:21:43;98908.72;;;-0.08
72054;BMP280;59918;51.280;7.950;2023-03-01T08:24:08;98905.06;;;0.06
72054;BMP280;59918;51.280;7.950;2023-03-01T08:26:34;98901.88;;;0.26
72054;BMP280;59918;51.280;7.950;2023-03-01T08:29:00;98906.13;;;0.47
72054;BMP280;59918;51.280;7.950;2023-03-01T08:31:28;98900.25;;;0.69
72054;BMP280;59918;51.280;7.950;2023-03-01T08:33:56;98907.13;;;0.88
72054;BMP280;59918;51.280;7.950;2023-03-01T08:36:26;98903.50;;;1.12
72054;BMP280;59918;51.280;7.950;2023-03-01T08:38:52;98908.59;;;1.33
72054;BMP280;59918;51.280;7.950;2023-03-01T08:41:17;98909.19;;;1.56
72054;BMP280;59918;51.280;7.950;2023-03-01T08:43:43;98908.75;;;1.82
72054;BMP280;59918;51.280;7.950;2023-03-01T08:46:08;98899.50;;;2.02
72054;BMP280;59918;51.280;7.950;2023-03-01T08:48:33;98911.41;;;2.31
72054;BMP280;59918;51.280;7.950;2023-03-01T08:51:13;98912.22;;;2.61
72054;BMP280;59918;51.280;7.950;2023-03-01T08:53:39;98913.75;;;2.82
72054;BMP280;59918;51.280;7.950;2023-03-01T08:56:05;98906.19;;;3.10
72054;BMP280;59918;51.280;7.950;2023-03-01T08:58:31;98900.75;;;3.43
72054;BMP280;59918;51.280;7.950;2023-03-01T09:00:56;98887.88;;;3.72
72054;BMP280;59918;51.280;7.950;2023-03-01T09:03:23;98888.47;;;4.12
72054;BMP280;59918;51.280;7.950;2023-03-01T09:05:48;98882.88;;;4.44
72054;BMP280;59918;51.280;7.950;2023-03-01T09:08:13;98886.19;;;4.71
72054;BMP280;59918;51.280;7.950;2023-03-01T09:10:38;98881.19;;;5.06
72054;BMP280;59918;51.280;7.950;2023-03-01T09:13:04;98878.50;;;5.42
72054;BMP280;59918;51.280;7.950;2023-03-01T09:15:29;98880.25;;;5.76
72054;BMP280;59918;51.280;7.950;2023-03-01T09:17:54;98873.00;;;6.14
72054;BMP280;59918;51.280;7.950;2023-03-01T09:20:19;98876.56;;;6.46
72054;BMP280;59918;51.280;7.950;2023-03-01T09:22:45;98865.16;;;6.74
72054;BMP280;59918;51.280;7.950;2023-03-01T09:25:10;98858.72;;;7.11
72054;BMP280;59918;51.280;7.950;2023-03-01T09:27:35;98861.47;;;7.41
72054;BMP280;59918;51.280;7.950;2023-03-01T09:30:01;98849.94;;;7.76
72054;BMP280;59918;51.280;7.950;2023-03-01T09:32:26;98843.00;;;8.16
72054;BMP280;59918;51.280;7.950;2023-03-01T09:34:54;98848.63;;;8.66
72054;BMP280;59918;51.280;7.950;2023-03-01T09:37:19;98849.28;;;9.20
72054;BMP280;59918;51.280;7.950;2023-03-01T09:39:44;98845.75;;;9.65
72054;BMP280;59918;51.280;7.950;2023-03-01T09:42:12;98845.22;;;10.06
72054;BMP280;59918;51.280;7.950;2023-03-01T09:44:47;98846.84;;;10.50
72054;BMP280;59918;51.280;7.950;2023-03-01T09:47:25;98846.06;;;10.99
72054;BMP280;59918;51.280;7.950;2023-03-01T09:52:34;98846.66;;;12.04
72054;BMP280;59918;51.280;7.950;2023-03-01T09:55:01;98843.19;;;12.58
72054;BMP280;59918;51.280;7.950;2023-03-01T09:57:41;98842.38;;;12.98
72054;BMP280;59918;51.280;7.950;2023-03-01T10:03:06;98841.16;;;14.11
72054;BMP280;59918;51.280;7.950;2023-03-01T10:05:54;98826.03;;;14.77
72054;BMP280;59918;51.280;7.950;2023-03-01T10:16:59;98817.75;;;16.33
72054;BMP280;59918;51.280;7.950;2023-03-01T10:19:45;98812.00;;;16.95
72054;BMP280;59918;51.280;7.950;2023-03-01T10:22:22;98802.78;;;17.28
72054;BMP280;59918;51.280;7.950;2023-03-01T10:24:50;98805.72;;;17.32
72054;BMP280;59918;51.280;7.950;2023-03-01T10:30:00;98798.56;;;17.79
72054;BMP280;59918;51.280;7.950;2023-03-01T10:32:29;98799.97;;;18.38
72054;BMP280;59918;51.280;7.950;2023-03-01T10:34:55;98784.41;;;18.82
72054;BMP280;59918;51.280;7.950;2023-03-01T10:37:21;98789.59;;;19.21
72054;BMP280;59918;51.280;7.950;2023-03-01T10:40:06;98787.13;;;19.42
72054;BMP280;59918;51.280;7.950;2023-03-01T10:42:34;98782.00;;;19.64
72054;BMP280;59918;51.280;7.950;2023-03-01T10:48:13;98775.16;;;20.70
72054;BMP280;59918;51.280;7.950;2023-03-01T10:50:41;98775.31;;;20.85
72054;BMP280;59918;51.280;7.950;2023-03-01T10:53:27;98775.38;;;20.90
72054;BMP280;59918;51.280;7.950;2023-03-01T10:56:22;98768.84;;;21.45
72054;BMP280;59918;51.280;7.950;2023-03-01T11:01:32;98759.28;;;21.96
72054;BMP280;59918;51.280;7.950;2023-03-01T11:06:33;98758.13;;;22.79
72054;BMP280;59918;51.280;7.950;2023-03-01T11:11:38;98748.50;;;23.24
72054;BMP280;59918;51.280;7.950;2023-03-01T11:14:16;98744.59;;;23.36
72054;BMP280;59918;51.280;7.950;2023-03-01T11:16:45;98752.47;;;23.71
72054;BMP280;59918;51.280;7.950;2023-03-01T11:21:59;98752.66;;;24.14
72054;BMP280;59918;51.280;7.950;2023-03-01T11:24:33;98749.94;;;24.43
72054;BMP280;59918;51.280;7.950;2023-03-01T11:27:03;98749.03;;;24.72
72054;BMP280;59918;51.280;7.950;2023-03-01T11:32:02;98738.84;;;25.09
72054;BMP280;59918;51.280;7.950;2023-03-01T11:35:05;98733.38;;;25.38
72054;BMP280;59918;51.280;7.950;2023-03-01T11:37:39;98726.59;;;25.61
72054;BMP280;59918;51.280;7.950;2023-03-01T11:40:10;98727.97;;;25.53
72054;BMP280;59918;51.280;7.950;2023-03-01T11:45:12;98727.53;;;25.74
72054;BMP280;59918;51.280;7.950;2023-03-01T11:47:56;98729.53;;;25.59
72054;BMP280;59918;51.280;7.950;2023-03-01T11:50:34;98721.16;;;26.03
72054;BMP280;59918;51.280;7.950;2023-03-01T11:53:13;98718.72;;;26.12
72054;BMP280;59918;51.280;7.950;2023-03-01T12:06:59;98700.50;;;27.30
72054;BMP280;59918;51.280;7.950;2023-03-01T12:12:32;98695.59;;;27.68
72054;BMP280;59918;51.280;7.950;2023-03-01T12:15:11;98695.94;;;27.93
72054;BMP280;59918;51.280;7.950;2023-03-01T12:20:28;98681.94;;;28.60
72054;BMP280;59918;51.280;7.950;2023-03-01T12:23:22;98685.78;;;28.89
72054;BMP280;59918;51.280;7.950;2023-03-01T12:31:46;98670.72;;;29.63
72054;BMP280;59918;51.280;7.950;2023-03-01T12:39:42;98663.38;;;30.45
72054;BMP280;59918;51.280;7.950;2023-03-01T12:50:25;98637.63;;;31.21
72054;BMP280;59918;51.280;7.950;2023-03-01T12:52:55;98643.06;;;31.24
72054;BMP280;59918;51.280;7.950;2023-03-01T12:55:33;98642.28;;;31.24
72054;BMP280;59918;51.280;7.950;2023-03-01T13:03:36;98629.38;;;31.60
72054;BMP280;59918;51.280;7.950;2023-03-01T13:11:28;98626.72;;;31.60
72054;BMP280;59918;51.280;7.950;2023-03-01T13:16:46;98620.19;;;32.63
72054;BMP280;59918;51.280;7.950;2023-03-01T13:19:23;98619.72;;;33.02
72054;BMP280;59918;51.280;7.950;2023-03-01T13:21:50;98610.56;;;33.11
72054;BMP280;59918;51.280;7.950;2023-03-01T13:24:41;98618.28;;;33.36
72054;BMP280;59918;51.280;7.950;2023-03-01T13:29:48;98618.28;;;33.36
72054;BMP280;59918;51.280;7.950;2023-03-01T13:32:23;98608.91;;;33.30
72054;BMP280;59918;51.280;7.950;2023-03-01T13:34:56;98613.78;;;33.28
72054;BMP280;59918;51.280;7.950;2023-03-01T13:37:27;98612.25;;;33.27
72054;BMP280;59918;51.280;7.950;2023-03-01T13:39:53;98609.50;;;33.36
72054;BMP280;59918;51.280;7.950;2023-03-01T13:42:39;98600.75;;;33.59
72054;BMP280;59918;51.280;7.950;2023-03-01T13:45:40;98598.44;;;33.93
72054;BMP280;59918;51.280;7.950;2023-03-01T13:48:18;98591.03;;;34.49
72054;BMP280;59918;51.280;7.950;2023-03-01T13:51:09;98591.31;;;34.21
72054;BMP280;59918;51.280;7.950;2023-03-01T13:53:39;98589.44;;;34.09
72054;BMP280;59918;51.280;7.950;2023-03-01T13:56:12;98591.91;;;33.90
72054;BMP280;59918;51.280;7.950;2023-03-01T13:59:04;98583.06;;;34.25
72054;BMP280;59918;51.280;7.950;2023-03-01T14:01:35;98585.19;;;34.59
72054;BMP280;59918;51.280;7.950;2023-03-01T14:04:03;98581.03;;;34.85
72054;BMP280;59918;51.280;7.950;2023-03-01T14:06:31;98579.75;;;35.10
72054;BMP280;59918;51.280;7.950;2023-03-01T14:09:16;98572.75;;;35.33
72054;BMP280;59918;51.280;7.950;2023-03-01T14:14:51;98580.78;;;35.05
72054;BMP280;59918;51.280;7.950;2023-03-01T14:19:43;98580.50;;;34.29
72054;BMP280;59918;51.280;7.950;2023-03-01T14:22:26;98573.34;;;34.45
72054;BMP280;59918;51.280;7.950;2023-03-01T14:24:53;98579.66;;;34.91
72054;BMP280;59918;51.280;7.950;2023-03-01T14:27:20;98572.69;;;34.75
72054;BMP280;59918;51.280;7.950;2023-03-01T14:29:59;98569.03;;;34.67
72054;BMP280;59918;51.280;7.950;2023-03-01T14:32:30;98563.56;;;34.49
72054;BMP280;59918;51.280;7.950;2023-03-01T14:34:57;98581.09;;;33.87
72054;BMP280;59918;51.280;7.950;2023-03-01T14:37:26;98567.31;;;33.61
72054;BMP280;59918;51.280;7.950;2023-03-01T14:39:52;98573.53;;;33.53
72054;BMP280;59918;51.280;7.950;2023-03-01T14:42:19;98560.88;;;33.39
72054;BMP280;59918;51.280;7.950;2023-03-01T14:44:48;98554.78;;;33.50
72054;BMP280;59918;51.280;7.950;2023-03-01T14:47:17;98563.53;;;33.39
72054;BMP280;59918;51.280;7.950;2023-03-01T14:49:45;98556.56;;;33.58
72054;BMP280;59918;51.280;7.950;2023-03-01T14:52:27;98555.31;;;33.44
72054;BMP280;59918;51.280;7.950;2023-03-01T14:54:54;98553.00;;;33.66
72054;BMP280;59918;51.280;7.950;2023-03-01T14:57:24;98544.44;;;33.60
72054;BMP280;59918;51.280;7.950;2023-03-01T14:59:54;98551.66;;;33.72
72054;BMP280;59918;51.280;7.950;2023-03-01T15:02:23;98544.56;;;33.88
72054;BMP280;59918;51.280;7.950;2023-03-01T15:04:54;98549.44;;;33.74
72054;BMP280;59918;51.280;7.950;2023-03-01T15:07:29;98535.88;;;33.67
72054;BMP280;59918;51.280;7.950;2023-03-01T15:09:55;98532.09;;;33.68
72054;BMP280;59918;51.280;7.950;2023-03-01T15:12:40;98531.75;;;33.69
72054;BMP280;59918;51.280;7.950;2023-03-01T15:17:52;98534.69;;;33.09
72054;BMP280;59918;51.280;7.950;2023-03-01T15:20:19;98532.19;;;32.80
72054;BMP280;59918;51.280;7.950;2023-03-01T15:22:45;98538.47;;;32.75
72054;BMP280;59918;51.280;7.950;2023-03-01T15:25:18;98530.63;;;32.47
72054;BMP280;59918;51.280;7.950;2023-03-01T15:27:48;98529.16;;;31.89
72054;BMP280;59918;51.280;7.950;2023-03-01T15:30:26;98527.91;;;31.12
72054;BMP280;59918;51.280;7.950;2023-03-01T15:33:27;98528.75;;;30.88
72054;BMP280;59918;51.280;7.950;2023-03-01T15:35:55;98534.09;;;30.79
72054;BMP280;59918;51.280;7.950;2023-03-01T15:40:58;98525.47;;;30.99
72054;BMP280;59918;51.280;7.950;2023-03-01T15:43:41;98527.69;;;30.88
72054;BMP280;59918;51.280;7.950;2023-03-01T15:48:52;98525.94;;;30.76
72054;BMP280;59918;51.280;7.950;2023-03-01T15:51:22;98520.22;;;30.57
72054;BMP280;59918;51.280;7.950;2023-03-01T15:53:51;98521.13;;;29.94
72054;BMP280;59918;51.280;7.950;2023-03-01T15:56:17;98531.44;;;29.48
72054;BMP280;59918;51.280;7.950;2023-03-01T15:58:42;98526.25;;;29.35
72054;BMP280;59918;51.280;7.950;2023-03-01T16:01:13;98527.72;;;27.97
72054;BMP280;59918;51.280;7.950;2023-03-01T16:03:39;98531.22;;;26.37
72054;BMP280;59918;51.280;7.950;2023-03-01T16:06:04;98526.31;;;26.30
72054;BMP280;59918;51.280;7.950;2023-03-01T16:08:29;98536.72;;;25.11
72054;BMP280;59918;51.280;7.950;2023-03-01T16:10:55;98547.78;;;22.37
72054;BMP280;59918;51.280;7.950;2023-03-01T16:13:20;98548.06;;;19.95